Time;durP1;ratioP1;P1;durP2;ratioP2;P2;SDS_P1;SDS_P2;PMS_P1;PMS_P2;Temp;Humidity;BMP_temperature;BMP_pressure;BME280_temperature;BME280_humidity;BME280_pressure;Samples;Min_cycle;Max_cycle;Signal;HPM_P1;HPM_P2
2023/06/18 00:01:51;;;;;;;23.20;17.95;;;;;;;-145.07;100.00;61000.34;5081301;28;20044;-65
2023/06/18 00:05:17;;;;;;;22.92;16.75;;;;;;;-145.07;100.00;61000.34;5053414;28;20049;-65
2023/06/18 00:08:42;;;;;;;22.30;16.63;;;;;;;-145.07;100.00;61000.34;5053699;28;20068;-66
2023/06/18 00:12:07;;;;;;;20.83;15.93;;;;;;;-145.07;100.00;61000.34;5055243;28;20576;-65
2023/06/18 00:15:32;;;;;;;20.88;17.45;;;;;;;-145.07;100.00;61000.34;5073918;28;20056;-65
2023/06/18 00:18:57;;;;;;;21.77;15.45;;;;;;;-145.07;100.00;61000.34;5076114;28;20052;-65
2023/06/18 00:22:23;;;;;;;20.70;16.65;;;;;;;-145.07;100.00;61000.34;5052179;28;20115;-65
2023/06/18 00:25:48;;;;;;;19.38;16.52;;;;;;;-145.07;100.00;61000.34;5057776;28;20048;-64
2023/06/18 00:29:13;;;;;;;19.65;15.18;;;;;;;-145.07;100.00;61000.34;5078614;28;20059;-64
2023/06/18 00:32:38;;;;;;;19.02;14.60;;;;;;;-145.07;100.00;61000.34;5082807;28;20048;-65
2023/06/18 00:36:04;;;;;;;18.17;14.25;;;;;;;-145.07;100.00;61000.34;5077381;28;20603;-64
2023/06/18 00:39:29;;;;;;;26.70;15.32;;;;;;;-145.07;100.00;61000.34;5057508;28;20053;-64
2023/06/18 00:42:55;;;;;;;20.40;15.57;;;;;;;-145.07;100.00;61000.34;5068193;28;20124;-65
2023/06/18 00:46:20;;;;;;;17.67;14.00;;;;;;;-145.07;100.00;61000.34;5078048;28;20045;-65
2023/06/18 00:49:46;;;;;;;18.83;15.02;;;;;;;-145.07;100.00;61000.34;5056974;28;20473;-65
2023/06/18 00:53:13;;;;;;;20.83;15.88;;;;;;;-145.07;100.00;61000.34;5064496;28;20600;-64
2023/06/18 00:56:50;;;;;;;19.45;16.52;;;;;;;-145.07;100.00;61000.34;5059432;28;20044;-65
2023/06/18 01:00:22;;;;;;;23.90;17.75;;;;;;;-145.07;100.00;61000.34;5071669;28;20080;-66
2023/06/18 01:03:48;;;;;;;21.58;16.08;;;;;;;-145.07;100.00;61000.34;5090149;28;20135;-64
2023/06/18 01:07:14;;;;;;;21.33;15.45;;;;;;;-145.07;100.00;61000.34;5059936;28;20044;-65
2023/06/18 01:10:46;;;;;;;22.50;15.65;;;;;;;-145.07;100.00;61000.34;5087796;28;20463;-64
2023/06/18 01:14:14;;;;;;;21.85;15.20;;;;;;;-145.07;100.00;61000.34;5061690;28;20171;-64
2023/06/18 01:17:40;;;;;;;18.10;15.27;;;;;;;-145.07;100.00;61000.34;5051874;28;20048;-64
2023/06/18 01:21:09;;;;;;;24.58;16.38;;;;;;;-145.07;100.00;61000.34;5072255;28;20056;-64
2023/06/18 01:24:47;;;;;;;18.65;15.20;;;;;;;-145.07;100.00;61000.34;5055363;28;20106;-64
2023/06/18 01:28:12;;;;;;;19.45;14.35;;;;;;;-145.07;100.00;61000.34;5058267;28;20048;-65
2023/06/18 01:31:42;;;;;;;24.02;15.45;;;;;;;-145.07;100.00;61000.34;5065639;28;20059;-65
2023/06/18 01:35:14;;;;;;;21.67;15.13;;;;;;;-145.07;100.00;61000.34;5076328;28;20132;-65
2023/06/18 01:39:00;;;;;;;23.38;16.15;;;;;;;-145.07;100.00;61000.34;5086262;28;20044;-65
2023/06/18 01:42:29;;;;;;;23.08;15.13;;;;;;;-145.07;100.00;61000.34;5052932;28;20084;-65
2023/06/18 01:46:16;;;;;;;18.85;15.40;;;;;;;-145.07;100.00;61000.34;5072721;28;20055;-65
2023/06/18 01:49:47;;;;;;;24.10;16.65;;;;;;;-145.07;100.00;61000.34;5066567;28;20098;-65
2023/06/18 01:53:15;;;;;;;19.10;15.93;;;;;;;-145.07;100.00;61000.34;5065104;28;20058;-64
2023/06/18 01:56:42;;;;;;;21.60;16.58;;;;;;;-145.07;100.00;61000.34;5085110;28;20338;-65
2023/06/18 02:00:09;;;;;;;26.77;17.77;;;;;;;-145.07;100.00;61000.34;5076142;28;20052;-65
2023/06/18 02:03:34;;;;;;;19.70;15.57;;;;;;;-145.07;100.00;61000.34;5081747;28;20588;-66
2023/06/18 02:06:59;;;;;;;22.00;16.88;;;;;;;-145.07;100.00;61000.34;5081352;28;20463;-65
2023/06/18 02:10:25;;;;;;;22.05;16.90;;;;;;;-145.07;100.00;61000.34;5075774;28;20048;-65
2023/06/18 02:13:50;;;;;;;20.75;15.82;;;;;;;-145.07;100.00;61000.34;5074930;28;20059;-65
2023/06/18 02:17:15;;;;;;;21.58;16.42;;;;;;;-145.07;100.00;61000.34;5088650;28;20472;-65
2023/06/18 02:20:41;;;;;;;23.52;18.02;;;;;;;-145.07;100.00;61000.34;5088387;28;20040;-65
2023/06/18 02:24:07;;;;;;;22.25;17.80;;;;;;;-145.07;100.00;61000.34;5080280;28;20048;-65
2023/06/18 02:27:32;;;;;;;25.83;16.33;;;;;;;-145.07;100.00;61000.34;5079165;28;20052;-65
2023/06/18 02:30:58;;;;;;;19.00;15.90;;;;;;;-145.07;100.00;61000.34;5075518;28;20063;-65
2023/06/18 02:34:27;;;;;;;22.73;14.73;;;;;;;-145.07;100.00;61000.34;5067936;28;20079;-65
2023/06/18 02:37:52;;;;;;;17.90;15.07;;;;;;;-145.07;100.00;61000.34;5074606;28;20083;-65
2023/06/18 02:41:19;;;;;;;18.98;15.75;;;;;;;-145.07;100.00;61000.34;5055843;28;20048;-65
2023/06/18 02:44:46;;;;;;;24.52;15.75;;;;;;;-145.07;100.00;61000.34;5059071;28;20049;-65
2023/06/18 02:48:11;;;;;;;20.88;15.93;;;;;;;-145.07;100.00;61000.34;5066926;28;20127;-65
2023/06/18 02:51:37;;;;;;;21.90;17.27;;;;;;;-145.07;100.00;61000.34;5064014;28;20405;-65
2023/06/18 02:55:02;;;;;;;21.80;16.05;;;;;;;-145.07;100.00;61000.34;5046855;28;20080;-65
2023/06/18 02:58:30;;;;;;;22.85;16.08;;;;;;;-145.07;100.00;61000.34;5064473;28;20044;-65
2023/06/18 03:01:56;;;;;;;21.60;15.27;;;;;;;-145.07;100.00;61000.34;5076414;28;20050;-65
2023/06/18 03:05:21;;;;;;;17.85;15.23;;;;;;;-145.07;100.00;61000.34;5056617;28;20680;-65
2023/06/18 03:08:47;;;;;;;18.85;15.65;;;;;;;-145.07;100.00;61000.34;5080740;28;20471;-64
2023/06/18 03:12:12;;;;;;;19.92;15.05;;;;;;;-145.07;100.00;61000.34;5081706;28;20465;-65
2023/06/18 03:15:37;;;;;;;23.40;16.77;;;;;;;-145.07;100.00;61000.34;5075414;28;20072;-65
2023/06/18 03:19:02;;;;;;;19.50;15.10;;;;;;;-145.07;100.00;61000.34;5073722;28;20127;-64
2023/06/18 03:22:28;;;;;;;20.58;15.63;;;;;;;-145.07;100.00;61000.34;5076052;28;20048;-65
2023/06/18 03:25:53;;;;;;;18.63;15.65;;;;;;;-145.07;100.00;61000.34;5098623;28;20138;-65
2023/06/18 03:29:18;;;;;;;19.60;14.77;;;;;;;-145.07;100.00;61000.34;5082357;28;20040;-64
2023/06/18 03:32:43;;;;;;;22.42;15.10;;;;;;;-145.07;100.00;61000.34;5056966;28;20052;-64
2023/06/18 03:36:09;;;;;;;19.02;16.00;;;;;;;-145.07;100.00;61000.34;5089926;28;20058;-65
2023/06/18 03:39:34;;;;;;;20.52;16.23;;;;;;;-145.07;100.00;61000.34;5076423;28;20504;-64
2023/06/18 03:42:59;;;;;;;19.75;15.88;;;;;;;-145.07;100.00;61000.34;5075200;28;20109;-64
2023/06/18 03:46:24;;;;;;;20.77;15.80;;;;;;;-145.07;100.00;61000.34;5076458;28;20155;-64
2023/06/18 03:49:50;;;;;;;22.95;16.15;;;;;;;-145.07;100.00;61000.34;5054209;28;20481;-64
2023/06/18 03:53:15;;;;;;;25.02;17.10;;;;;;;-145.07;100.00;61000.34;5071400;28;20105;-66
2023/06/18 03:56:41;;;;;;;21.55;16.60;;;;;;;-145.07;100.00;61000.34;5061019;28;20076;-64
2023/06/18 04:00:09;;;;;;;19.95;16.17;;;;;;;-145.07;100.00;61000.34;5059440;28;20063;-64
2023/06/18 04:03:34;;;;;;;24.48;17.30;;;;;;;-145.07;100.00;61000.34;5066851;28;20106;-64
2023/06/18 04:06:59;;;;;;;21.33;15.75;;;;;;;-145.07;100.00;61000.34;5061405;28;20044;-64
2023/06/18 04:10:24;;;;;;;21.25;15.60;;;;;;;-145.07;100.00;61000.34;5058093;28;20127;-64
2023/06/18 04:13:49;;;;;;;20.40;15.55;;;;;;;-145.07;100.00;61000.34;5065806;28;20719;-64
2023/06/18 04:17:14;;;;;;;20.33;15.77;;;;;;;-145.07;100.00;61000.34;5065143;28;20126;-64
2023/06/18 04:20:39;;;;;;;19.40;16.00;;;;;;;-145.07;100.00;61000.34;5054116;28;20053;-64
2023/06/18 04:24:05;;;;;;;19.27;16.23;;;;;;;-145.07;100.00;61000.34;5071311;28;20052;-64
2023/06/18 04:27:30;;;;;;;20.02;17.60;;;;;;;-145.07;100.00;61000.34;5062461;28;20049;-64
2023/06/18 04:30:55;;;;;;;21.65;16.85;;;;;;;-145.07;100.00;61000.34;5080999;28;20471;-64
2023/06/18 04:34:21;;;;;;;20.20;17.17;;;;;;;-145.07;100.00;61000.34;5089383;28;20039;-64
2023/06/18 04:37:46;;;;;;;22.05;18.00;;;;;;;-145.07;100.00;61000.34;5064519;28;20102;-64
2023/06/18 04:41:11;;;;;;;21.75;18.60;;;;;;;-145.07;100.00;61000.34;5064191;28;20048;-64
2023/06/18 04:44:36;;;;;;;29.05;18.45;;;;;;;-145.07;100.00;61000.34;5072604;28;20055;-64
2023/06/18 04:48:04;;;;;;;25.48;18.80;;;;;;;-145.07;100.00;61000.34;5056404;28;20059;-64
2023/06/18 04:51:29;;;;;;;22.33;19.25;;;;;;;-145.07;100.00;61000.34;5085725;28;20056;-64
2023/06/18 04:54:55;;;;;;;22.85;20.35;;;;;;;-145.07;100.00;61000.34;5076486;28;20510;-66
2023/06/18 04:58:21;;;;;;;25.35;21.88;;;;;;;-145.07;100.00;61000.34;5053438;28;20060;-64
2023/06/18 05:01:46;;;;;;;27.75;21.88;;;;;;;-145.07;100.00;61000.34;5076166;28;20057;-66
2023/06/18 05:05:11;;;;;;;29.30;21.90;;;;;;;-145.07;100.00;61000.34;5055448;28;20434;-64
2023/06/18 05:08:36;;;;;;;25.70;22.05;;;;;;;-145.07;100.00;61000.34;5052838;28;20053;-64
2023/06/18 05:12:01;;;;;;;25.75;20.58;;;;;;;-145.07;100.00;61000.34;5076530;28;20060;-64
2023/06/18 05:15:26;;;;;;;26.95;22.05;;;;;;;-145.07;100.00;61000.34;5052321;28;20419;-64
2023/06/18 05:18:51;;;;;;;30.27;24.25;;;;;;;-145.07;100.00;61000.34;5060314;28;20127;-64
2023/06/18 05:22:16;;;;;;;28.27;23.13;;;;;;;-145.07;100.00;61000.34;5065126;28;20055;-64
2023/06/18 05:25:41;;;;;;;28.75;22.80;;;;;;;-145.07;100.00;61000.34;5053321;28;20045;-64
2023/06/18 05:29:06;;;;;;;23.90;21.30;;;;;;;-145.07;100.00;61000.34;5059904;28;20459;-64
2023/06/18 05:32:31;;;;;;;26.02;22.13;;;;;;;-145.07;100.00;61000.34;5062969;28;20076;-64
2023/06/18 05:35:56;;;;;;;26.45;21.55;;;;;;;-145.07;100.00;61000.34;5075697;28;20469;-64
2023/06/18 05:39:21;;;;;;;24.25;20.08;;;;;;;-145.07;100.00;61000.34;5076358;28;20044;-64
2023/06/18 05:42:48;;;;;;;24.88;20.38;;;;;;;-145.07;100.00;61000.34;5052649;28;20102;-64
2023/06/18 05:46:13;;;;;;;23.25;19.05;;;;;;;-145.07;100.00;61000.34;5059844;28;20076;-64
2023/06/18 05:49:40;;;;;;;22.85;18.92;;;;;;;-145.07;100.00;61000.34;5075141;28;20148;-64
2023/06/18 05:53:05;;;;;;;24.40;18.60;;;;;;;-145.07;100.00;61000.34;5070226;28;20056;-63
2023/06/18 05:56:30;;;;;;;23.67;18.80;;;;;;;-145.07;100.00;61000.34;5071963;28;20053;-64
2023/06/18 05:59:55;;;;;;;21.60;17.15;;;;;;;-145.07;100.00;61000.34;5068531;28;20061;-64
2023/06/18 06:03:20;;;;;;;19.75;17.05;;;;;;;-145.07;100.00;61000.34;5054896;28;20049;-64
2023/06/18 06:06:45;;;;;;;22.02;17.17;;;;;;;-145.07;100.00;61000.34;5068661;28;20051;-64
2023/06/18 06:10:11;;;;;;;16.95;15.00;;;;;;;-145.07;100.00;61000.34;5046510;28;20151;-64
2023/06/18 06:13:37;;;;;;;19.85;16.42;;;;;;;-145.07;100.00;61000.34;5082080;28;20135;-64
2023/06/18 06:17:02;;;;;;;17.70;15.80;;;;;;;-145.07;100.00;61000.34;5066995;28;20048;-64
2023/06/18 06:20:27;;;;;;;19.42;14.38;;;;;;;-145.07;100.00;61000.34;5082150;28;20508;-64
2023/06/18 06:23:52;;;;;;;16.35;13.82;;;;;;;-145.07;100.00;61000.34;5061431;28;20135;-64
2023/06/18 06:27:17;;;;;;;17.00;13.32;;;;;;;-145.07;100.00;61000.34;5088241;28;20444;-64
2023/06/18 06:30:42;;;;;;;28.77;15.07;;;;;;;-145.07;100.00;61000.34;5091761;28;20044;-64
2023/06/18 06:34:07;;;;;;;14.90;13.00;;;;;;;-145.07;100.00;61000.34;5076835;28;20082;-64
2023/06/18 06:37:32;;;;;;;18.50;15.02;;;;;;;-145.07;100.00;61000.34;5056048;28;20556;-64
2023/06/18 06:40:58;;;;;;;15.95;13.95;;;;;;;-145.07;100.00;61000.34;5084771;28;20044;-64
2023/06/18 06:44:23;;;;;;;16.20;14.38;;;;;;;-145.07;100.00;61000.34;5076290;28;20140;-64
2023/06/18 06:47:48;;;;;;;15.48;13.20;;;;;;;-145.07;100.00;61000.34;5060424;28;20500;-65
2023/06/18 06:51:13;;;;;;;14.20;12.38;;;;;;;-145.07;100.00;61000.34;5087239;28;20051;-64
2023/06/18 06:54:38;;;;;;;15.90;12.65;;;;;;;-145.07;100.00;61000.34;5049429;28;20483;-64
2023/06/18 06:58:04;;;;;;;15.48;12.80;;;;;;;-145.07;100.00;61000.34;5078420;28;20132;-65
2023/06/18 07:01:29;;;;;;;15.75;13.52;;;;;;;-145.07;100.00;61000.34;5065061;28;20408;-64
2023/06/18 07:04:54;;;;;;;14.68;11.75;;;;;;;-145.07;100.00;61000.34;5068256;28;20052;-64
2023/06/18 07:08:19;;;;;;;20.85;12.68;;;;;;;-145.07;100.00;61000.34;5082440;28;20049;-64
2023/06/18 07:11:44;;;;;;;13.02;10.90;;;;;;;-145.07;100.00;61000.34;5089912;28;20456;-64
2023/06/18 07:15:09;;;;;;;13.05;11.30;;;;;;;-145.07;100.00;61000.34;5083970;28;20053;-64
2023/06/18 07:18:35;;;;;;;14.05;11.90;;;;;;;-145.07;100.00;61000.34;5079003;28;20134;-64
2023/06/18 07:22:00;;;;;;;14.00;12.35;;;;;;;-145.07;100.00;61000.34;5020562;28;20131;-64
2023/06/18 07:25:25;;;;;;;12.68;10.95;;;;;;;-145.07;100.00;61000.34;5063350;28;20156;-64
2023/06/18 07:28:50;;;;;;;13.55;11.35;;;;;;;-145.07;100.00;61000.34;5074215;28;20181;-64
2023/06/18 07:32:15;;;;;;;13.35;11.25;;;;;;;-145.07;100.00;61000.34;5076343;28;20048;-64
2023/06/18 07:35:40;;;;;;;20.75;11.05;;;;;;;-145.07;100.00;61000.34;5065729;28;20041;-63
2023/06/18 07:39:05;;;;;;;14.23;10.63;;;;;;;-145.07;100.00;61000.34;5053614;28;20132;-63
2023/06/18 07:42:30;;;;;;;11.95;10.23;;;;;;;-145.07;100.00;61000.34;5055673;28;20132;-63
2023/06/18 07:45:56;;;;;;;11.57;9.15;;;;;;;-145.07;100.00;61000.34;5073772;28;20057;-63
2023/06/18 07:49:21;;;;;;;12.55;10.00;;;;;;;-145.07;100.00;61000.34;5068901;28;20049;-64
2023/06/18 07:52:47;;;;;;;12.55;9.63;;;;;;;-145.07;100.00;61000.34;5080124;28;20135;-64
2023/06/18 07:56:12;;;;;;;15.75;10.07;;;;;;;-145.07;100.00;61000.34;5065048;28;20048;-63
2023/06/18 07:59:37;;;;;;;16.00;10.82;;;;;;;-145.07;100.00;61000.34;5057152;28;20060;-64
2023/06/18 08:03:02;;;;;;;10.27;7.72;;;;;;;-145.07;100.00;61000.34;5093636;28;20486;-64
2023/06/18 08:06:27;;;;;;;12.40;9.15;;;;;;;-145.07;100.00;61000.34;5077317;28;20455;-63
2023/06/18 08:09:52;;;;;;;9.48;6.60;;;;;;;-145.07;100.00;61000.34;5068281;28;20081;-63
2023/06/18 08:13:17;;;;;;;9.15;7.50;;;;;;;-145.07;100.00;61000.34;5084191;28;20613;-63
2023/06/18 08:16:42;;;;;;;8.32;6.78;;;;;;;-145.07;100.00;61000.34;5055570;28;20132;-66
2023/06/18 08:20:08;;;;;;;7.70;6.30;;;;;;;-145.07;100.00;61000.34;5076326;28;20048;-65
2023/06/18 08:23:33;;;;;;;9.02;6.18;;;;;;;-145.07;100.00;61000.34;5083058;28;20044;-64
2023/06/18 08:26:58;;;;;;;10.50;6.10;;;;;;;-145.07;100.00;61000.34;5072871;28;20213;-63
2023/06/18 08:30:23;;;;;;;8.70;6.68;;;;;;;-145.07;100.00;61000.34;5061222;28;20095;-63
2023/06/18 08:33:49;;;;;;;9.18;7.32;;;;;;;-145.07;100.00;61000.34;5052980;28;20081;-64
2023/06/18 08:37:16;;;;;;;9.23;6.50;;;;;;;-145.07;100.00;61000.34;5072751;28;20083;-63
2023/06/18 08:40:51;;;;;;;8.93;7.38;;;;;;;-145.07;100.00;61000.34;5075808;28;20124;-63
2023/06/18 08:44:17;;;;;;;11.50;7.25;;;;;;;-145.07;100.00;61000.34;5064440;28;20071;-64
2023/06/18 08:47:45;;;;;;;8.95;7.47;;;;;;;-145.07;100.00;61000.34;5075144;28;20428;-63
2023/06/18 08:51:11;;;;;;;9.57;7.43;;;;;;;-145.07;100.00;61000.34;5082905;28;20040;-63
2023/06/18 08:54:38;;;;;;;12.82;8.30;;;;;;;-145.07;100.00;61000.34;5063732;28;20048;-65
2023/06/18 08:58:21;;;;;;;11.27;6.40;;;;;;;-145.07;100.00;61000.34;5058000;28;20044;-63
2023/06/18 09:01:48;;;;;;;7.28;5.95;;;;;;;-145.07;100.00;61000.34;5038643;28;20136;-63
2023/06/18 09:05:13;;;;;;;6.20;5.20;;;;;;;-145.07;100.00;61000.34;5059684;28;20036;-63
2023/06/18 09:08:39;;;;;;;9.20;5.75;;;;;;;-145.07;100.00;61000.34;5081314;28;20044;-64
2023/06/18 09:12:04;;;;;;;7.75;4.57;;;;;;;-145.07;100.00;61000.34;5051798;28;20045;-64
2023/06/18 09:15:29;;;;;;;9.15;7.00;;;;;;;-145.07;100.00;61000.34;5076894;28;20151;-62
2023/06/18 09:18:56;;;;;;;6.78;6.03;;;;;;;-145.07;100.00;61000.34;5086667;28;20079;-63
2023/06/18 09:22:45;;;;;;;8.45;7.60;;;;;;;-145.07;100.00;61000.34;5063405;28;20135;-65
2023/06/18 09:26:17;;;;;;;10.35;7.75;;;;;;;-145.07;100.00;61000.34;5073572;28;20519;-63
2023/06/18 09:29:42;;;;;;;10.20;6.72;;;;;;;-145.07;100.00;61000.34;5051706;28;20373;-63
2023/06/18 09:33:11;;;;;;;8.13;7.05;;;;;;;-145.07;100.00;61000.34;5053773;28;20572;-63
2023/06/18 09:36:38;;;;;;;7.35;5.63;;;;;;;-145.07;100.00;61000.34;5069748;28;20143;-64
2023/06/18 09:40:19;;;;;;;7.05;5.80;;;;;;;-145.07;100.00;61000.34;5076397;28;20067;-63
2023/06/18 09:43:47;;;;;;;8.23;5.82;;;;;;;-145.07;100.00;61000.34;5051425;28;20056;-63
2023/06/18 09:47:14;;;;;;;9.00;5.80;;;;;;;-145.07;100.00;61000.34;5061001;28;20559;-64
2023/06/18 09:50:39;;;;;;;9.88;6.55;;;;;;;-145.07;100.00;61000.34;5062774;28;20135;-64
2023/06/18 09:54:14;;;;;;;8.13;5.68;;;;;;;-145.07;100.00;61000.34;5052034;28;20451;-64
2023/06/18 09:57:53;;;;;;;9.63;6.40;;;;;;;-145.07;100.00;61000.34;5054292;28;20106;-64
2023/06/18 10:01:19;;;;;;;32.60;21.92;;;;;;;-145.07;100.00;61000.34;5073290;28;20655;-66
2023/06/18 10:04:45;;;;;;;13.48;6.63;;;;;;;-145.07;100.00;61000.34;5071908;28;20048;-69
2023/06/18 10:08:11;;;;;;;9.18;6.72;;;;;;;-145.07;100.00;61000.34;5054923;28;20135;-65
2023/06/18 10:11:38;;;;;;;9.95;5.80;;;;;;;-145.07;100.00;61000.34;5057553;28;20131;-65
2023/06/18 10:15:10;;;;;;;7.88;5.28;;;;;;;-145.07;100.00;61000.34;5062549;28;20057;-66
2023/06/18 10:18:37;;;;;;;8.85;5.05;;;;;;;-145.07;100.00;61000.34;5072815;28;20080;-68
2023/06/18 10:22:03;;;;;;;6.88;4.82;;;;;;;-145.07;100.00;61000.34;5055363;28;20068;-69
2023/06/18 10:25:36;;;;;;;7.97;4.90;;;;;;;-145.07;100.00;61000.34;5054180;28;20078;-71
2023/06/18 10:29:01;;;;;;;4.88;4.07;;;;;;;-145.07;100.00;61000.34;5077392;28;20151;-71
2023/06/18 10:32:28;;;;;;;8.18;5.38;;;;;;;-145.07;100.00;61000.34;5074000;28;20048;-69
2023/06/18 10:35:56;;;;;;;8.10;5.20;;;;;;;-145.07;100.00;61000.34;5069759;28;20413;-68
2023/06/18 10:39:21;;;;;;;5.28;4.20;;;;;;;-145.07;100.00;61000.34;5069704;28;20125;-69
2023/06/18 10:42:50;;;;;;;5.97;4.40;;;;;;;-145.07;100.00;61000.34;5036813;28;20045;-69
2023/06/18 10:46:16;;;;;;;7.90;5.00;;;;;;;-145.07;100.00;61000.34;5076382;28;20076;-70
2023/06/18 10:50:01;;;;;;;9.50;5.78;;;;;;;-145.07;100.00;61000.34;5067426;28;20518;-69
2023/06/18 10:53:27;;;;;;;8.10;5.43;;;;;;;-145.07;100.00;61000.34;5052073;28;20060;-70
2023/06/18 10:56:56;;;;;;;5.22;4.60;;;;;;;-145.07;100.00;61000.34;5085405;28;20062;-69
2023/06/18 11:00:35;;;;;;;6.53;4.82;;;;;;;-145.07;100.00;61000.34;5069941;28;20173;-69
2023/06/18 11:04:05;;;;;;;6.43;4.75;;;;;;;-145.07;100.00;61000.34;5085157;28;20051;-71
2023/06/18 11:07:30;;;;;;;4.97;4.10;;;;;;;-145.07;100.00;61000.34;5080722;28;20054;-68
2023/06/18 11:11:06;;;;;;;9.05;4.18;;;;;;;-145.07;100.00;61000.34;5064570;28;20060;-68
2023/06/18 11:14:34;;;;;;;4.60;3.92;;;;;;;-145.07;100.00;61000.34;5058291;28;20041;-69
2023/06/18 11:18:06;;;;;;;4.82;4.03;;;;;;;-145.07;100.00;61000.34;5062495;28;20389;-69
2023/06/18 11:21:33;;;;;;;5.57;4.18;;;;;;;-145.07;100.00;61000.34;5068228;28;20493;-69
2023/06/18 11:24:59;;;;;;;4.53;3.05;;;;;;;-145.07;100.00;61000.34;5056916;28;20113;-69
2023/06/18 11:28:25;;;;;;;4.35;3.35;;;;;;;-145.07;100.00;61000.34;5068026;28;20051;-69
2023/06/18 11:31:53;;;;;;;4.13;3.53;;;;;;;-145.07;100.00;61000.34;5070980;28;20131;-70
2023/06/18 11:35:18;;;;;;;7.95;5.40;;;;;;;-145.07;100.00;61000.34;5066036;28;20096;-67
2023/06/18 11:38:44;;;;;;;5.93;3.72;;;;;;;-145.07;100.00;61000.34;5057534;28;20041;-66
2023/06/18 11:42:12;;;;;;;5.72;4.88;;;;;;;-145.07;100.00;61000.34;5053169;28;20701;-68
2023/06/18 11:45:59;;;;;;;4.22;3.40;;;;;;;-145.07;100.00;61000.34;5053096;28;20411;-66
2023/06/18 11:49:24;;;;;;;4.80;3.35;;;;;;;-145.07;100.00;61000.34;5054056;28;20072;-66
2023/06/18 11:52:49;;;;;;;5.13;2.97;;;;;;;-145.07;100.00;61000.34;5061466;28;20040;-66
2023/06/18 11:56:15;;;;;;;6.88;4.07;;;;;;;-145.07;100.00;61000.34;5086813;28;20066;-67
2023/06/18 11:59:40;;;;;;;3.85;2.83;;;;;;;-145.07;100.00;61000.34;5067952;28;20044;-66
2023/06/18 12:03:09;;;;;;;8.07;3.67;;;;;;;-145.07;100.00;61000.34;5053230;28;20448;-66
2023/06/18 12:06:36;;;;;;;6.40;4.97;;;;;;;-145.07;100.00;61000.34;5072976;28;20048;-66
2023/06/18 12:10:06;;;;;;;4.03;3.60;;;;;;;-145.07;100.00;61000.34;5072845;28;20585;-66
2023/06/18 12:13:40;;;;;;;6.05;4.28;;;;;;;-145.07;100.00;61000.34;5072840;28;20056;-68
2023/06/18 12:17:21;;;;;;;4.25;3.75;;;;;;;-145.07;100.00;61000.34;5056345;28;20059;-66
2023/06/18 12:20:51;;;;;;;3.90;2.90;;;;;;;-145.07;100.00;61000.34;5066812;28;20052;-65
2023/06/18 12:24:17;;;;;;;6.07;4.18;;;;;;;-145.07;100.00;61000.34;5052655;28;20073;-66
2023/06/18 12:27:42;;;;;;;4.50;3.28;;;;;;;-145.07;100.00;61000.34;5063500;28;20080;-67
2023/06/18 12:31:10;;;;;;;5.53;3.45;;;;;;;-145.07;100.00;61000.34;5051627;28;20394;-66
2023/06/18 12:34:35;;;;;;;6.28;3.85;;;;;;;-145.07;100.00;61000.34;5050306;28;20045;-66
2023/06/18 12:38:04;;;;;;;4.57;3.42;;;;;;;-145.07;100.00;61000.34;5063389;28;20071;-68
2023/06/18 12:41:35;;;;;;;5.03;3.60;;;;;;;-145.07;100.00;61000.34;5073171;28;20049;-68
2023/06/18 12:45:00;;;;;;;7.22;3.55;;;;;;;-145.07;100.00;61000.34;5080732;28;20041;-68
2023/06/18 12:48:26;;;;;;;3.97;2.88;;;;;;;-145.07;100.00;61000.34;5054804;28;20085;-67
2023/06/18 12:51:53;;;;;;;7.53;4.35;;;;;;;-145.07;100.00;61000.34;5057546;28;20076;-67
2023/06/18 12:55:19;;;;;;;4.30;3.67;;;;;;;-145.07;100.00;61000.34;5069505;28;20532;-69
2023/06/18 12:58:45;;;;;;;10.65;3.70;;;;;;;-145.07;100.00;61000.34;5056388;28;20049;-68
2023/06/18 13:02:12;;;;;;;6.90;4.15;;;;;;;-145.07;100.00;61000.34;5056239;28;20389;-68
2023/06/18 13:05:37;;;;;;;6.35;3.70;;;;;;;-145.07;100.00;61000.34;5058063;28;20045;-67
2023/06/18 13:09:04;;;;;;;4.05;3.63;;;;;;;-145.07;100.00;61000.34;5064607;28;20044;-68
2023/06/18 13:12:30;;;;;;;5.65;3.85;;;;;;;-145.07;100.00;61000.34;5067855;28;20057;-67
2023/06/18 13:15:55;;;;;;;5.20;3.97;;;;;;;-145.07;100.00;61000.34;5061234;28;20482;-68
2023/06/18 13:19:20;;;;;;;5.65;4.68;;;;;;;-145.07;100.00;61000.34;5065580;28;20041;-69
2023/06/18 13:22:45;;;;;;;4.38;3.97;;;;;;;-145.07;100.00;61000.34;5063191;28;20083;-68
2023/06/18 13:26:11;;;;;;;4.47;3.30;;;;;;;-145.07;100.00;61000.34;5073010;28;20056;-69
2023/06/18 13:29:36;;;;;;;5.15;4.32;;;;;;;-145.07;100.00;61000.34;5062087;28;20056;-70
2023/06/18 13:33:01;;;;;;;7.53;5.95;;;;;;;-145.07;100.00;61000.34;5052043;28;20135;-68
2023/06/18 13:36:26;;;;;;;4.10;3.33;;;;;;;-145.07;100.00;61000.34;5055658;28;20183;-68
2023/06/18 13:39:51;;;;;;;5.63;3.08;;;;;;;-145.07;100.00;61000.34;5053477;28;20052;-68
2023/06/18 13:43:18;;;;;;;5.53;4.20;;;;;;;-145.07;100.00;61000.34;5059413;28;20049;-68
2023/06/18 13:46:43;;;;;;;3.83;2.72;;;;;;;-145.07;100.00;61000.34;5064337;28;20139;-68
2023/06/18 13:50:12;;;;;;;5.45;3.30;;;;;;;-145.07;100.00;61000.34;5050483;28;20081;-68
2023/06/18 13:53:37;;;;;;;7.28;4.28;;;;;;;-145.07;100.00;61000.34;5072904;28;20135;-69
2023/06/18 13:57:02;;;;;;;4.15;3.00;;;;;;;-145.07;100.00;61000.34;5063987;28;20055;-69
2023/06/18 14:00:27;;;;;;;8.45;3.45;;;;;;;-145.07;100.00;61000.34;5070008;28;20462;-67
2023/06/18 14:03:52;;;;;;;5.80;3.40;;;;;;;-145.07;100.00;61000.34;5076599;28;20098;-68
2023/06/18 14:07:17;;;;;;;3.53;3.03;;;;;;;-145.07;100.00;61000.34;5063900;28;20135;-68
2023/06/18 14:10:42;;;;;;;3.63;3.10;;;;;;;-145.07;100.00;61000.34;5067803;28;20617;-67
2023/06/18 14:14:08;;;;;;;6.05;3.17;;;;;;;-145.07;100.00;61000.34;5062697;28;20053;-69
2023/06/18 14:17:33;;;;;;;3.30;2.63;;;;;;;-145.07;100.00;61000.34;5059133;28;20468;-69
2023/06/18 14:20:58;;;;;;;5.18;3.40;;;;;;;-145.07;100.00;61000.34;5055443;28;20463;-68
2023/06/18 14:24:23;;;;;;;4.30;2.90;;;;;;;-145.07;100.00;61000.34;5038861;28;20037;-67
2023/06/18 14:27:49;;;;;;;8.32;3.40;;;;;;;-145.07;100.00;61000.34;5054812;28;20056;-68
2023/06/18 14:31:14;;;;;;;4.25;2.80;;;;;;;-145.07;100.00;61000.34;5070765;28;20044;-67
2023/06/18 14:34:39;;;;;;;4.20;3.10;;;;;;;-145.07;100.00;61000.34;5088001;28;20040;-68
2023/06/18 14:38:05;;;;;;;6.15;3.03;;;;;;;-145.07;100.00;61000.34;5083923;28;20048;-68
2023/06/18 14:41:30;;;;;;;6.38;3.03;;;;;;;-145.07;100.00;61000.34;5053296;28;20098;-66
2023/06/18 14:44:55;;;;;;;4.35;3.00;;;;;;;-145.07;100.00;61000.34;5055135;28;20082;-67
2023/06/18 14:48:20;;;;;;;4.13;2.95;;;;;;;-145.07;100.00;61000.34;5054690;28;20049;-68
2023/06/18 14:51:45;;;;;;;10.10;4.35;;;;;;;-145.07;100.00;61000.34;5061224;28;20044;-68
2023/06/18 14:55:11;;;;;;;5.93;2.92;;;;;;;-145.07;100.00;61000.34;5036562;28;20407;-67
2023/06/18 14:58:36;;;;;;;4.45;3.38;;;;;;;-145.07;100.00;61000.34;5056046;28;20352;-68
2023/06/18 15:02:01;;;;;;;6.88;3.47;;;;;;;-145.07;100.00;61000.34;5066706;28;20143;-67
2023/06/18 15:05:37;;;;;;;12.48;4.63;;;;;;;-145.07;100.00;61000.34;5053082;28;20079;-67
2023/06/18 15:09:05;;;;;;;4.35;3.15;;;;;;;-145.07;100.00;61000.34;5044395;28;20048;-67
2023/06/18 15:12:30;;;;;;;6.95;3.35;;;;;;;-145.07;100.00;61000.34;5063920;28;20059;-68
2023/06/18 15:15:55;;;;;;;6.00;3.40;;;;;;;-145.07;100.00;61000.34;5058006;28;20053;-69
2023/06/18 15:19:20;;;;;;;4.70;3.42;;;;;;;-145.07;100.00;61000.34;5069183;28;20076;-66
2023/06/18 15:22:48;;;;;;;4.50;3.45;;;;;;;-145.07;100.00;61000.34;5055904;28;20040;-68
2023/06/18 15:26:14;;;;;;;4.50;3.08;;;;;;;-145.07;100.00;61000.34;5069831;28;20094;-68
2023/06/18 15:29:40;;;;;;;4.90;3.47;;;;;;;-145.07;100.00;61000.34;5073528;28;20056;-67